VAM Template | Vabird

Vabird! Vabird Marcello Mazzieri




 INFORMACIÓN METAR y TAF
METAR FOR ULAA
ADDS - METARS form results

(1605 UTC 26 September 2020)
Data provider http://aviationweather.gov/metar/data/
 
METAR text: ULAA 261600Z 18002MPS 150V210 CAVOK 14/11 Q1020 R08/CLRD68 NOSIG RMK QFE764/1019
Conditions at: ULAA (ARHANGELSK , RU) observed 1600 UTC 26 September 2020
Temperature: 14.0°C (57°F)
Dewpoint: 11.0°C (52°F) [RH = 82%]
Pressure (altimeter): 30.12 inches Hg (1020.0 mb)
Winds: from the S (180 degrees) at 5 MPH (4 knots; 2.1 m/s)
Visibility: 6 or more miles (10+ km)
Ceiling: ceiling and visibility are OK
Clouds: unknown
Weather: no significant weather observed at this time

METAR text: ULAA 261530Z 17003MPS 130V210 CAVOK 15/11 Q1020 R08/CLRD68 NOSIG RMK QFE764/1019
Conditions at: ULAA (ARHANGELSK , RU) observed 1530 UTC 26 September 2020
Temperature: 15.0°C (59°F)
Dewpoint: 11.0°C (52°F) [RH = 77%]
Pressure (altimeter): 30.12 inches Hg (1020.0 mb)
Winds: from the S (170 degrees) at 7 MPH (6 knots; 3.1 m/s)
Visibility: 6 or more miles (10+ km)
Ceiling: ceiling and visibility are OK
Clouds: unknown
Weather: no significant weather observed at this time

Forecast for: ULAA (ARHANGELSK , RU)
Text: TAF ULAA 261400Z 2615/2715 16003MPS 9999 BKN030
Forecast period: 1500 UTC 26 September 2020 to 0800 UTC 27 September 2020
Forecast type: FROM: standard forecast or significant change
Winds: from the SSE (160 degrees) at 7 MPH (6 knots; 3.1 m/s)
Visibility: 6 or more miles (10+ km)
Ceiling: 3000 feet AGL
Clouds: broken clouds at 3000 feet AGL
Weather: no significant weather forecast for this period
Text: TEMPO 2616/2621 VRB01MPS 0500 FG FEW002
Forecast period: 1600 to 2100 UTC 26 September 2020
Forecast type: TEMPORARY: The following changes expected for less than half the time period
Winds: variable direction winds at 2 MPH (2 knots; 1.0 m/s)
Visibility: 0.31 miles (0.50 km)
Ceiling: at least 12,000 feet AGL
Clouds: few clouds at 200 feet AGL
Weather: FG  (fog)
Text: FM270800 01003MPS 6000 FEW005 BKN016
Forecast period: 0800 to 1500 UTC 27 September 2020
Forecast type: FROM: standard forecast or significant change
Winds: from the N (10 degrees) at 7 MPH (6 knots; 3.1 m/s)
Visibility: 4 miles (6 km)
Ceiling: 1600 feet AGL
Clouds: few clouds at 500 feet AGL
broken clouds at 1600 feet AGL
Weather: no significant weather forecast for this period
Text: TEMPO 2708/2715 05003G09MPS FEW003
Forecast period: 0800 to 1500 UTC 27 September 2020
Forecast type: TEMPORARY: The following changes expected for less than half the time period
Winds: from the NE (50 degrees) at 7 MPH (6 knots; 3.1 m/s)
gusting to 20 MPH (17 knots; 8.7 m/s)
Visibility: missing
Ceiling: at least 12,000 feet AGL
Clouds: few clouds at 300 feet AGL
Weather: no significant weather forecast for this period

 MAPA DE AEROPUERTO

 INFORMACIÓN DE PISTA